PTGLD SSGY-SSPS
Flight info
| Callsign | PTGLD |
|---|---|
| Flight time | 1h 13m |
| Altitude | 7500 |
| Route | DCT 2455S05324W 2527S05254W 2613S05240W DCT |
| Aircraft | PA24/L-SDFGIRY/S |
Departure
| Time | 2026-04-12 12:59 |
|---|---|
| Airport | Guaíra Airport (SSGY) |
Arrival
| Time | 2026-04-12 14:12 |
|---|---|
| Airport | Palmas Airport (SSPS) |
| Time | Latitude | Longitude | Altitude | Speed | Heading |
|---|---|---|---|---|---|
| 2026-04-12 12:38 | -24.08015 | -54.18718 | 871 ft | 0 kts | 160° |
| 2026-04-12 12:44 | -24.08012 | -54.18719 | 870 ft | 2 kts | 160° |
| 2026-04-12 12:44 | -24.08006 | -54.18722 | 869 ft | 1 kts | 160° |
| 2026-04-12 12:46 | -24.08010 | -54.18721 | 869 ft | 0 kts | 168° |
| 2026-04-12 12:46 | -24.08009 | -54.18721 | 869 ft | 1 kts | 173° |
| 2026-04-12 12:47 | -24.08007 | -54.18719 | 869 ft | 0 kts | 358° |
| 2026-04-12 12:53 | -24.08005 | -54.18720 | 870 ft | 3 kts | 352° |
| 2026-04-12 12:54 | -24.07979 | -54.18754 | 871 ft | 11 kts | 307° |
| 2026-04-12 12:54 | -24.07968 | -54.18767 | 871 ft | 0 kts | 316° |
| 2026-04-12 12:55 | -24.07942 | -54.18792 | 872 ft | 10 kts | 306° |
| 2026-04-12 12:56 | -24.07972 | -54.18903 | 872 ft | 24 kts | 239° |
| 2026-04-12 12:56 | -24.08077 | -54.19096 | 873 ft | 33 kts | 239° |
| 2026-04-12 12:56 | -24.08184 | -54.19296 | 872 ft | 27 kts | 239° |
| 2026-04-12 12:56 | -24.08272 | -54.19457 | 874 ft | 23 kts | 239° |
| 2026-04-12 12:57 | -24.08344 | -54.19592 | 877 ft | 18 kts | 240° |
| 2026-04-12 12:57 | -24.08395 | -54.19669 | 880 ft | 2 kts | 214° |
| 2026-04-12 12:57 | -24.08392 | -54.19687 | 881 ft | 6 kts | 21° |
| 2026-04-12 12:57 | -24.08385 | -54.19677 | 880 ft | 0 kts | 50° |
| 2026-04-12 12:58 | -24.08337 | -54.19593 | 877 ft | 46 kts | 61° |
| 2026-04-12 12:58 | -24.08097 | -54.19146 | 931 ft | 78 kts | 61° |
| 2026-04-12 12:58 | -24.07810 | -54.18582 | 1060 ft | 93 kts | 62° |
| 2026-04-12 12:59 | -24.07500 | -54.17916 | 1263 ft | 103 kts | 65° |
| 2026-04-12 12:59 | -24.07288 | -54.17185 | 1553 ft | 100 kts | 91° |
| 2026-04-12 12:59 | -24.07756 | -54.16613 | 1756 ft | 112 kts | 155° |
| 2026-04-12 12:59 | -24.08536 | -54.16367 | 2005 ft | 123 kts | 161° |
| 2026-04-12 13:00 | -24.09418 | -54.16162 | 2199 ft | 135 kts | 164° |
| 2026-04-12 13:00 | -24.10371 | -54.16011 | 2445 ft | 141 kts | 166° |
| 2026-04-12 13:00 | -24.11325 | -54.15605 | 2537 ft | 153 kts | 141° |
| 2026-04-12 13:00 | -24.12218 | -54.15039 | 2725 ft | 145 kts | 138° |
| 2026-04-12 13:01 | -24.13083 | -54.14437 | 2848 ft | 151 kts | 138° |
| 2026-04-12 13:01 | -24.13984 | -54.13830 | 2965 ft | 151 kts | 138° |
| 2026-04-12 13:01 | -24.14868 | -54.13223 | 3101 ft | 151 kts | 138° |
| 2026-04-12 13:01 | -24.15780 | -54.12608 | 3196 ft | 155 kts | 140° |
| 2026-04-12 13:02 | -24.16676 | -54.11997 | 3320 ft | 153 kts | 138° |
| 2026-04-12 13:02 | -24.17582 | -54.11367 | 3386 ft | 156 kts | 139° |
| 2026-04-12 13:02 | -24.18500 | -54.10730 | 3525 ft | 156 kts | 138° |
| 2026-04-12 13:02 | -24.19400 | -54.10088 | 3686 ft | 154 kts | 139° |
| 2026-04-12 13:03 | -24.20289 | -54.09456 | 3806 ft | 151 kts | 141° |
| 2026-04-12 13:03 | -24.21179 | -54.08836 | 3982 ft | 150 kts | 140° |
| 2026-04-12 13:03 | -24.22053 | -54.08204 | 4129 ft | 151 kts | 140° |
| 2026-04-12 13:03 | -24.22933 | -54.07557 | 4288 ft | 153 kts | 139° |
| 2026-04-12 13:04 | -24.23809 | -54.06892 | 4466 ft | 153 kts | 140° |
| 2026-04-12 13:04 | -24.24680 | -54.06220 | 4567 ft | 153 kts | 140° |
| 2026-04-12 13:04 | -24.25545 | -54.05549 | 4678 ft | 152 kts | 140° |
| 2026-04-12 13:04 | -24.26408 | -54.04878 | 4838 ft | 152 kts | 140° |
| 2026-04-12 13:05 | -24.27263 | -54.04190 | 4932 ft | 152 kts | 139° |
| 2026-04-12 13:05 | -24.28110 | -54.03494 | 5075 ft | 152 kts | 140° |
| 2026-04-12 13:05 | -24.28962 | -54.02801 | 5188 ft | 153 kts | 139° |
| 2026-04-12 13:05 | -24.29755 | -54.02024 | 5262 ft | 153 kts | 130° |
| 2026-04-12 13:06 | -24.30455 | -54.01174 | 5392 ft | 152 kts | 124° |
| 2026-04-12 13:06 | -24.31209 | -54.00347 | 5412 ft | 157 kts | 138° |
| 2026-04-12 13:06 | -24.31945 | -53.99476 | 5501 ft | 155 kts | 122° |
| 2026-04-12 13:06 | -24.32561 | -53.98536 | 5701 ft | 151 kts | 121° |
| 2026-04-12 13:07 | -24.33249 | -53.97652 | 5752 ft | 158 kts | 136° |
| 2026-04-12 13:07 | -24.34102 | -53.96896 | 5924 ft | 153 kts | 139° |
| 2026-04-12 13:07 | -24.34948 | -53.96187 | 6018 ft | 156 kts | 139° |
| 2026-04-12 13:07 | -24.35814 | -53.95429 | 6077 ft | 158 kts | 142° |
| 2026-04-12 13:08 | -24.36666 | -53.94705 | 6289 ft | 154 kts | 140° |
| 2026-04-12 13:08 | -24.37542 | -53.93995 | 6332 ft | 160 kts | 141° |
| 2026-04-12 13:08 | -24.38426 | -53.93272 | 6520 ft | 156 kts | 139° |
| 2026-04-12 13:08 | -24.39268 | -53.92534 | 6638 ft | 159 kts | 139° |
| 2026-04-12 13:09 | -24.40122 | -53.91758 | 6757 ft | 159 kts | 138° |
| 2026-04-12 13:09 | -24.40967 | -53.90984 | 6925 ft | 158 kts | 140° |
| 2026-04-12 13:09 | -24.41836 | -53.90231 | 7004 ft | 160 kts | 141° |
| 2026-04-12 13:09 | -24.42725 | -53.89493 | 7152 ft | 160 kts | 140° |
| 2026-04-12 13:10 | -24.43304 | -53.88966 | 7222 ft | 160 kts | 138° |
| 2026-04-12 13:10 | -24.44474 | -53.87970 | 7414 ft | 161 kts | 142° |
| 2026-04-12 13:10 | -24.45348 | -53.87196 | 7518 ft | 162 kts | 138° |
| 2026-04-12 13:10 | -24.46223 | -53.86422 | 7625 ft | 161 kts | 141° |
| 2026-04-12 13:11 | -24.47095 | -53.85647 | 7779 ft | 162 kts | 140° |
| 2026-04-12 13:11 | -24.48005 | -53.84843 | 7708 ft | 173 kts | 139° |
| 2026-04-12 13:11 | -24.48948 | -53.83991 | 7677 ft | 178 kts | 141° |
| 2026-04-12 13:11 | -24.49955 | -53.83172 | 7638 ft | 180 kts | 141° |
| 2026-04-12 13:12 | -24.50932 | -53.82309 | 7628 ft | 180 kts | 138° |
| 2026-04-12 13:12 | -24.51899 | -53.81432 | 7611 ft | 181 kts | 138° |
| 2026-04-12 13:12 | -24.52850 | -53.80558 | 7649 ft | 177 kts | 140° |
| 2026-04-12 13:12 | -24.53780 | -53.79673 | 7630 ft | 179 kts | 137° |
| 2026-04-12 13:13 | -24.54742 | -53.78806 | 7643 ft | 180 kts | 143° |
| 2026-04-12 13:13 | -24.55720 | -53.77951 | 7649 ft | 179 kts | 139° |
| 2026-04-12 13:13 | -24.56694 | -53.77091 | 7655 ft | 180 kts | 137° |
| 2026-04-12 13:13 | -24.57675 | -53.76227 | 7655 ft | 182 kts | 142° |
| 2026-04-12 13:14 | -24.58650 | -53.75337 | 7652 ft | 182 kts | 140° |
| 2026-04-12 13:14 | -24.59655 | -53.74480 | 7652 ft | 182 kts | 140° |
| 2026-04-12 13:14 | -24.60627 | -53.73594 | 7652 ft | 181 kts | 141° |
| 2026-04-12 13:14 | -24.61600 | -53.72713 | 7653 ft | 180 kts | 139° |
| 2026-04-12 13:15 | -24.62548 | -53.71817 | 7654 ft | 180 kts | 140° |
| 2026-04-12 13:15 | -24.63545 | -53.70977 | 7654 ft | 180 kts | 142° |
| 2026-04-12 13:15 | -24.64523 | -53.70112 | 7656 ft | 181 kts | 140° |
| 2026-04-12 13:15 | -24.65492 | -53.69227 | 7654 ft | 181 kts | 140° |
| 2026-04-12 13:16 | -24.66458 | -53.68335 | 7661 ft | 182 kts | 139° |
| 2026-04-12 13:16 | -24.67435 | -53.67449 | 7659 ft | 182 kts | 140° |
| 2026-04-12 13:16 | -24.68419 | -53.66568 | 7657 ft | 182 kts | 143° |
| 2026-04-12 13:16 | -24.69426 | -53.65719 | 7664 ft | 182 kts | 141° |
| 2026-04-12 13:17 | -24.70419 | -53.64852 | 7666 ft | 183 kts | 140° |
| 2026-04-12 13:17 | -24.71399 | -53.63992 | 7666 ft | 183 kts | 141° |
| 2026-04-12 13:17 | -24.72390 | -53.63121 | 7668 ft | 182 kts | 141° |
| 2026-04-12 13:17 | -24.73393 | -53.62250 | 7672 ft | 184 kts | 141° |
| 2026-04-12 13:18 | -24.74376 | -53.61347 | 7671 ft | 183 kts | 140° |
| 2026-04-12 13:18 | -24.75363 | -53.60478 | 7676 ft | 182 kts | 140° |
| 2026-04-12 13:18 | -24.77323 | -53.58709 | 7676 ft | 182 kts | 141° |
| 2026-04-12 13:19 | -24.78310 | -53.57851 | 7679 ft | 180 kts | 143° |
| 2026-04-12 13:19 | -24.79302 | -53.56995 | 7681 ft | 182 kts | 143° |
| 2026-04-12 13:19 | -24.80259 | -53.56091 | 7683 ft | 181 kts | 136° |
| 2026-04-12 13:19 | -24.81252 | -53.55233 | 7684 ft | 181 kts | 142° |
| 2026-04-12 13:20 | -24.81904 | -53.54657 | 7681 ft | 182 kts | 139° |
| 2026-04-12 13:20 | -24.83201 | -53.53475 | 7686 ft | 182 kts | 142° |
| 2026-04-12 13:20 | -24.83845 | -53.52883 | 7686 ft | 182 kts | 139° |
| 2026-04-12 13:20 | -24.84829 | -53.52006 | 7686 ft | 182 kts | 143° |
| 2026-04-12 13:21 | -24.85802 | -53.51110 | 7690 ft | 182 kts | 135° |
| 2026-04-12 13:21 | -24.86745 | -53.50175 | 7689 ft | 183 kts | 140° |
| 2026-04-12 13:21 | -24.87676 | -53.49224 | 7692 ft | 182 kts | 136° |
| 2026-04-12 13:21 | -24.88641 | -53.48322 | 7692 ft | 182 kts | 147° |
| 2026-04-12 13:22 | -24.89819 | -53.47825 | 7691 ft | 182 kts | 160° |
| 2026-04-12 13:22 | -24.90973 | -53.47241 | 7691 ft | 183 kts | 154° |
| 2026-04-12 13:22 | -24.92064 | -53.46524 | 7699 ft | 183 kts | 141° |
| 2026-04-12 13:22 | -24.93020 | -53.45613 | 7693 ft | 182 kts | 140° |
| 2026-04-12 13:23 | -24.93971 | -53.44703 | 7698 ft | 181 kts | 129° |
| 2026-04-12 13:23 | -24.94635 | -53.43520 | 7693 ft | 182 kts | 117° |
| 2026-04-12 13:23 | -24.95235 | -53.42322 | 7694 ft | 179 kts | 123° |
| 2026-04-12 13:23 | -24.96142 | -53.41397 | 7692 ft | 178 kts | 140° |
| 2026-04-12 13:24 | -24.97062 | -53.40472 | 7692 ft | 179 kts | 137° |
| 2026-04-12 13:24 | -24.98009 | -53.39589 | 7692 ft | 179 kts | 141° |
| 2026-04-12 13:24 | -24.98955 | -53.38698 | 7693 ft | 178 kts | 139° |
| 2026-04-12 13:24 | -24.99885 | -53.37795 | 7692 ft | 178 kts | 140° |
| 2026-04-12 13:25 | -25.00865 | -53.36948 | 7688 ft | 179 kts | 141° |
| 2026-04-12 13:25 | -25.01830 | -53.36058 | 7692 ft | 182 kts | 143° |
| 2026-04-12 13:25 | -25.02791 | -53.35159 | 7690 ft | 181 kts | 136° |
| 2026-04-12 13:25 | -25.03725 | -53.34232 | 7689 ft | 181 kts | 138° |
| 2026-04-12 13:26 | -25.04668 | -53.33316 | 7690 ft | 180 kts | 141° |
| 2026-04-12 13:26 | -25.05640 | -53.32439 | 7688 ft | 180 kts | 138° |
| 2026-04-12 13:26 | -25.06607 | -53.31575 | 7687 ft | 178 kts | 144° |
| 2026-04-12 13:26 | -25.07537 | -53.30671 | 7685 ft | 178 kts | 136° |
| 2026-04-12 13:27 | -25.08453 | -53.29751 | 7687 ft | 178 kts | 141° |
| 2026-04-12 13:27 | -25.09408 | -53.28871 | 7686 ft | 178 kts | 142° |
| 2026-04-12 13:27 | -25.10371 | -53.28007 | 7688 ft | 179 kts | 139° |
| 2026-04-12 13:27 | -25.11326 | -53.27146 | 7686 ft | 180 kts | 139° |
| 2026-04-12 13:28 | -25.12279 | -53.26247 | 7685 ft | 180 kts | 141° |
| 2026-04-12 13:28 | -25.13234 | -53.25354 | 7684 ft | 179 kts | 140° |
| 2026-04-12 13:28 | -25.14172 | -53.24459 | 7685 ft | 179 kts | 141° |
| 2026-04-12 13:28 | -25.15119 | -53.23565 | 7681 ft | 179 kts | 137° |
| 2026-04-12 13:29 | -25.16070 | -53.22677 | 7681 ft | 179 kts | 141° |
| 2026-04-12 13:29 | -25.16994 | -53.21752 | 7682 ft | 179 kts | 139° |
| 2026-04-12 13:29 | -25.17949 | -53.20862 | 7681 ft | 179 kts | 140° |
| 2026-04-12 13:29 | -25.18897 | -53.19976 | 7680 ft | 178 kts | 139° |
| 2026-04-12 13:30 | -25.19843 | -53.19091 | 7680 ft | 178 kts | 140° |
| 2026-04-12 13:30 | -25.20781 | -53.18218 | 7683 ft | 178 kts | 141° |
| 2026-04-12 13:30 | -25.21711 | -53.17315 | 7683 ft | 178 kts | 139° |
| 2026-04-12 13:30 | -25.22646 | -53.16414 | 7683 ft | 178 kts | 139° |
| 2026-04-12 13:31 | -25.23574 | -53.15507 | 7683 ft | 178 kts | 139° |
| 2026-04-12 13:31 | -25.24511 | -53.14608 | 7682 ft | 178 kts | 138° |
| 2026-04-12 13:31 | -25.25459 | -53.13719 | 7683 ft | 179 kts | 141° |
| 2026-04-12 13:31 | -25.26412 | -53.12843 | 7680 ft | 177 kts | 140° |
| 2026-04-12 13:32 | -25.27353 | -53.11959 | 7681 ft | 178 kts | 140° |
| 2026-04-12 13:32 | -25.28281 | -53.11057 | 7684 ft | 178 kts | 139° |
| 2026-04-12 13:32 | -25.29209 | -53.10143 | 7682 ft | 179 kts | 140° |
| 2026-04-12 13:32 | -25.30157 | -53.09259 | 7684 ft | 178 kts | 139° |
| 2026-04-12 13:33 | -25.31089 | -53.08366 | 7680 ft | 177 kts | 140° |
| 2026-04-12 13:33 | -25.31958 | -53.07401 | 7680 ft | 176 kts | 133° |
| 2026-04-12 13:33 | -25.32810 | -53.06424 | 7680 ft | 177 kts | 134° |
| 2026-04-12 13:33 | -25.33642 | -53.05418 | 7680 ft | 177 kts | 132° |
| 2026-04-12 13:34 | -25.34496 | -53.04437 | 7677 ft | 177 kts | 134° |
| 2026-04-12 13:34 | -25.35347 | -53.03455 | 7680 ft | 177 kts | 135° |
| 2026-04-12 13:34 | -25.36196 | -53.02473 | 7679 ft | 176 kts | 133° |
| 2026-04-12 13:34 | -25.36989 | -53.01443 | 7683 ft | 176 kts | 130° |
| 2026-04-12 13:35 | -25.37778 | -53.00405 | 7681 ft | 176 kts | 130° |
| 2026-04-12 13:35 | -25.38591 | -52.99387 | 7685 ft | 176 kts | 133° |
| 2026-04-12 13:35 | -25.39392 | -52.98387 | 7685 ft | 176 kts | 131° |
| 2026-04-12 13:35 | -25.40198 | -52.97358 | 7685 ft | 176 kts | 132° |
| 2026-04-12 13:36 | -25.40987 | -52.96315 | 7687 ft | 176 kts | 129° |
| 2026-04-12 13:36 | -25.41788 | -52.95289 | 7686 ft | 176 kts | 130° |
| 2026-04-12 13:36 | -25.42558 | -52.94236 | 7686 ft | 176 kts | 129° |
| 2026-04-12 13:36 | -25.43354 | -52.93203 | 7685 ft | 177 kts | 131° |
| 2026-04-12 13:37 | -25.44175 | -52.92191 | 7686 ft | 177 kts | 134° |
| 2026-04-12 13:37 | -25.45222 | -52.91516 | 7688 ft | 175 kts | 163° |
| 2026-04-12 13:37 | -25.46389 | -52.91110 | 7686 ft | 176 kts | 164° |
| 2026-04-12 13:37 | -25.47545 | -52.90705 | 7685 ft | 176 kts | 165° |
| 2026-04-12 13:38 | -25.48729 | -52.90320 | 7685 ft | 174 kts | 167° |
| 2026-04-12 13:38 | -25.49877 | -52.89937 | 7685 ft | 175 kts | 163° |
| 2026-04-12 13:38 | -25.51050 | -52.89515 | 7687 ft | 175 kts | 163° |
| 2026-04-12 13:38 | -25.52212 | -52.89121 | 7688 ft | 174 kts | 164° |
| 2026-04-12 13:39 | -25.53350 | -52.88721 | 7690 ft | 174 kts | 164° |
| 2026-04-12 13:39 | -25.54518 | -52.88344 | 7687 ft | 174 kts | 166° |
| 2026-04-12 13:39 | -25.55675 | -52.87952 | 7688 ft | 174 kts | 166° |
| 2026-04-12 13:39 | -25.56843 | -52.87569 | 7687 ft | 176 kts | 165° |
| 2026-04-12 13:40 | -25.58019 | -52.87173 | 7688 ft | 176 kts | 163° |
| 2026-04-12 13:40 | -25.59175 | -52.86735 | 7689 ft | 175 kts | 162° |
| 2026-04-12 13:40 | -25.60334 | -52.86340 | 7687 ft | 174 kts | 165° |
| 2026-04-12 13:40 | -25.61496 | -52.85958 | 7687 ft | 174 kts | 165° |
| 2026-04-12 13:41 | -25.62658 | -52.85576 | 7688 ft | 175 kts | 165° |
| 2026-04-12 13:41 | -25.63825 | -52.85181 | 7690 ft | 176 kts | 164° |
| 2026-04-12 13:41 | -25.64999 | -52.84805 | 7690 ft | 175 kts | 163° |
| 2026-04-12 13:41 | -25.66160 | -52.84393 | 7691 ft | 176 kts | 165° |
| 2026-04-12 13:42 | -25.67322 | -52.84035 | 7694 ft | 175 kts | 164° |
| 2026-04-12 13:42 | -25.68494 | -52.83637 | 7689 ft | 176 kts | 165° |
| 2026-04-12 13:42 | -25.69668 | -52.83235 | 7691 ft | 177 kts | 165° |
| 2026-04-12 13:42 | -25.70850 | -52.82859 | 7692 ft | 177 kts | 163° |
| 2026-04-12 13:43 | -25.72028 | -52.82443 | 7690 ft | 178 kts | 166° |
| 2026-04-12 13:43 | -25.73196 | -52.82005 | 7694 ft | 177 kts | 162° |
| 2026-04-12 13:43 | -25.74373 | -52.81603 | 7693 ft | 177 kts | 165° |
| 2026-04-12 13:43 | -25.75549 | -52.81210 | 7696 ft | 176 kts | 162° |
| 2026-04-12 13:44 | -25.76723 | -52.80832 | 7698 ft | 176 kts | 165° |
| 2026-04-12 13:44 | -25.77892 | -52.80425 | 7698 ft | 175 kts | 166° |
| 2026-04-12 13:44 | -25.79065 | -52.80045 | 7695 ft | 176 kts | 166° |
| 2026-04-12 13:44 | -25.80239 | -52.79639 | 7697 ft | 177 kts | 165° |
| 2026-04-12 13:45 | -25.81413 | -52.79257 | 7698 ft | 178 kts | 163° |
| 2026-04-12 13:45 | -25.82594 | -52.78839 | 7698 ft | 179 kts | 166° |
| 2026-04-12 13:45 | -25.83780 | -52.78418 | 7702 ft | 179 kts | 164° |
| 2026-04-12 13:45 | -25.84970 | -52.78029 | 7700 ft | 177 kts | 166° |
| 2026-04-12 13:46 | -25.86158 | -52.77644 | 7701 ft | 177 kts | 164° |
| 2026-04-12 13:46 | -25.87339 | -52.77262 | 7701 ft | 177 kts | 166° |
| 2026-04-12 13:46 | -25.88517 | -52.76865 | 7701 ft | 177 kts | 166° |
| 2026-04-12 13:46 | -25.89696 | -52.76488 | 7700 ft | 176 kts | 165° |
| 2026-04-12 13:47 | -25.90868 | -52.76102 | 7699 ft | 176 kts | 165° |
| 2026-04-12 13:47 | -25.92050 | -52.75718 | 7703 ft | 176 kts | 166° |
| 2026-04-12 13:47 | -25.93227 | -52.75310 | 7703 ft | 178 kts | 164° |
| 2026-04-12 13:47 | -25.94414 | -52.74905 | 7705 ft | 178 kts | 164° |
| 2026-04-12 13:48 | -25.95603 | -52.74582 | 7709 ft | 178 kts | 175° |
| 2026-04-12 13:48 | -25.96834 | -52.74513 | 7707 ft | 177 kts | 181° |
| 2026-04-12 13:48 | -25.98061 | -52.74479 | 7704 ft | 176 kts | 181° |
| 2026-04-12 13:48 | -25.99278 | -52.74415 | 7706 ft | 174 kts | 171° |
| 2026-04-12 13:49 | -26.00452 | -52.74051 | 7709 ft | 175 kts | 165° |
| 2026-04-12 13:49 | -26.01630 | -52.73680 | 7708 ft | 176 kts | 166° |
| 2026-04-12 13:49 | -26.02777 | -52.73280 | 7708 ft | 176 kts | 164° |
| 2026-04-12 13:49 | -26.03950 | -52.72873 | 7712 ft | 177 kts | 164° |
| 2026-04-12 13:50 | -26.05129 | -52.72464 | 7711 ft | 178 kts | 163° |
| 2026-04-12 13:50 | -26.06313 | -52.72058 | 7715 ft | 178 kts | 165° |
| 2026-04-12 13:50 | -26.07508 | -52.71673 | 7713 ft | 179 kts | 165° |
| 2026-04-12 13:50 | -26.08699 | -52.71289 | 7711 ft | 178 kts | 166° |
| 2026-04-12 13:51 | -26.09887 | -52.70872 | 7715 ft | 180 kts | 164° |
| 2026-04-12 13:51 | -26.11084 | -52.70484 | 7714 ft | 178 kts | 164° |
| 2026-04-12 13:51 | -26.12252 | -52.70078 | 7711 ft | 178 kts | 165° |
| 2026-04-12 13:51 | -26.13448 | -52.69676 | 7712 ft | 177 kts | 165° |
| 2026-04-12 13:52 | -26.14615 | -52.69294 | 7714 ft | 176 kts | 165° |
| 2026-04-12 13:52 | -26.15786 | -52.68884 | 7716 ft | 177 kts | 165° |
| 2026-04-12 13:52 | -26.16971 | -52.68488 | 7715 ft | 177 kts | 165° |
| 2026-04-12 13:52 | -26.18159 | -52.68097 | 7717 ft | 178 kts | 166° |
| 2026-04-12 13:53 | -26.19352 | -52.67751 | 7714 ft | 177 kts | 167° |
| 2026-04-12 13:53 | -26.20535 | -52.67388 | 7714 ft | 176 kts | 166° |
| 2026-04-12 13:53 | -26.21721 | -52.67035 | 7716 ft | 177 kts | 168° |
| 2026-04-12 13:53 | -26.22868 | -52.66559 | 7718 ft | 177 kts | 144° |
| 2026-04-12 13:54 | -26.23566 | -52.65445 | 7716 ft | 178 kts | 112° |
| 2026-04-12 13:54 | -26.24094 | -52.64194 | 7718 ft | 178 kts | 114° |
| 2026-04-12 13:54 | -26.24586 | -52.62949 | 7719 ft | 178 kts | 111° |
| 2026-04-12 13:54 | -26.25058 | -52.61671 | 7718 ft | 178 kts | 110° |
| 2026-04-12 13:55 | -26.25544 | -52.60407 | 7718 ft | 177 kts | 112° |
| 2026-04-12 13:55 | -26.26022 | -52.59137 | 7719 ft | 178 kts | 112° |
| 2026-04-12 13:55 | -26.26500 | -52.57873 | 7717 ft | 176 kts | 111° |
| 2026-04-12 13:55 | -26.26992 | -52.56625 | 7716 ft | 176 kts | 112° |
| 2026-04-12 13:56 | -26.27484 | -52.55366 | 7721 ft | 178 kts | 112° |
| 2026-04-12 13:56 | -26.27967 | -52.54097 | 7721 ft | 178 kts | 110° |
| 2026-04-12 13:56 | -26.28454 | -52.52846 | 7715 ft | 179 kts | 112° |
| 2026-04-12 13:56 | -26.28932 | -52.51562 | 7718 ft | 181 kts | 111° |
| 2026-04-12 13:57 | -26.29424 | -52.50280 | 7717 ft | 179 kts | 112° |
| 2026-04-12 13:57 | -26.29932 | -52.49018 | 7719 ft | 179 kts | 114° |
| 2026-04-12 13:57 | -26.30416 | -52.47751 | 7716 ft | 177 kts | 111° |
| 2026-04-12 13:57 | -26.30885 | -52.46475 | 7715 ft | 178 kts | 111° |
| 2026-04-12 13:58 | -26.31361 | -52.45204 | 7717 ft | 178 kts | 112° |
| 2026-04-12 13:58 | -26.31832 | -52.43929 | 7719 ft | 178 kts | 110° |
| 2026-04-12 13:58 | -26.32309 | -52.42643 | 7722 ft | 180 kts | 112° |
| 2026-04-12 13:58 | -26.32808 | -52.41364 | 7721 ft | 179 kts | 113° |
| 2026-04-12 13:59 | -26.33302 | -52.40091 | 7721 ft | 178 kts | 110° |
| 2026-04-12 13:59 | -26.33778 | -52.38820 | 7720 ft | 178 kts | 111° |
| 2026-04-12 13:59 | -26.34258 | -52.37541 | 7721 ft | 179 kts | 111° |
| 2026-04-12 13:59 | -26.34707 | -52.36244 | 7721 ft | 180 kts | 110° |
| 2026-04-12 14:00 | -26.35170 | -52.34942 | 7721 ft | 180 kts | 112° |
| 2026-04-12 14:00 | -26.35686 | -52.33661 | 7723 ft | 181 kts | 114° |
| 2026-04-12 14:00 | -26.36184 | -52.32397 | 7721 ft | 179 kts | 108° |
| 2026-04-12 14:00 | -26.36601 | -52.31107 | 7729 ft | 173 kts | 111° |
| 2026-04-12 14:01 | -26.37031 | -52.29887 | 7727 ft | 169 kts | 108° |
| 2026-04-12 14:01 | -26.37475 | -52.28675 | 7659 ft | 170 kts | 112° |
| 2026-04-12 14:01 | -26.37957 | -52.27454 | 7569 ft | 170 kts | 115° |
| 2026-04-12 14:01 | -26.38464 | -52.26244 | 7493 ft | 172 kts | 114° |
| 2026-04-12 14:02 | -26.38910 | -52.25041 | 7501 ft | 166 kts | 111° |
| 2026-04-12 14:02 | -26.39343 | -52.23847 | 7399 ft | 166 kts | 111° |
| 2026-04-12 14:02 | -26.39790 | -52.22686 | 7372 ft | 161 kts | 111° |
| 2026-04-12 14:02 | -26.40236 | -52.21519 | 7181 ft | 164 kts | 112° |
| 2026-04-12 14:03 | -26.40679 | -52.20362 | 7052 ft | 161 kts | 112° |
| 2026-04-12 14:03 | -26.41075 | -52.19184 | 6918 ft | 164 kts | 111° |
| 2026-04-12 14:03 | -26.41537 | -52.18019 | 6809 ft | 163 kts | 114° |
| 2026-04-12 14:03 | -26.41960 | -52.16859 | 6711 ft | 161 kts | 109° |
| 2026-04-12 14:04 | -26.42407 | -52.15704 | 6606 ft | 162 kts | 113° |
| 2026-04-12 14:04 | -26.42865 | -52.14561 | 6522 ft | 160 kts | 110° |
| 2026-04-12 14:04 | -26.43290 | -52.13409 | 6382 ft | 161 kts | 111° |
| 2026-04-12 14:04 | -26.43742 | -52.12266 | 6250 ft | 160 kts | 110° |
| 2026-04-12 14:05 | -26.44192 | -52.11142 | 6127 ft | 158 kts | 112° |
| 2026-04-12 14:05 | -26.44650 | -52.10035 | 5996 ft | 157 kts | 111° |
| 2026-04-12 14:05 | -26.45212 | -52.07725 | 5815 ft | 154 kts | 94° |
| 2026-04-12 14:06 | -26.45358 | -52.06560 | 5745 ft | 149 kts | 93° |
| 2026-04-12 14:06 | -26.45476 | -52.05413 | 5691 ft | 149 kts | 92° |
| 2026-04-12 14:06 | -26.45601 | -52.04260 | 5627 ft | 149 kts | 90° |
| 2026-04-12 14:06 | -26.45736 | -52.03125 | 5497 ft | 148 kts | 92° |
| 2026-04-12 14:07 | -26.45900 | -52.01995 | 5381 ft | 146 kts | 91° |
| 2026-04-12 14:07 | -26.46017 | -52.00884 | 5328 ft | 142 kts | 89° |
| 2026-04-12 14:07 | -26.45928 | -52.00157 | 5188 ft | 144 kts | 78° |
| 2026-04-12 14:07 | -26.46172 | -51.99080 | 5011 ft | 151 kts | 130° |
| 2026-04-12 14:08 | -26.47176 | -51.98879 | 4860 ft | 155 kts | 199° |
| 2026-04-12 14:08 | -26.48401 | -51.99570 | 4880 ft | 145 kts | 213° |
| 2026-04-12 14:08 | -26.48945 | -51.99991 | 4926 ft | 137 kts | 217° |
| 2026-04-12 14:08 | -26.49668 | -52.00627 | 4989 ft | 126 kts | 221° |
| 2026-04-12 14:09 | -26.50352 | -52.01222 | 4954 ft | 122 kts | 223° |
| 2026-04-12 14:09 | -26.50980 | -52.01851 | 4877 ft | 122 kts | 211° |
| 2026-04-12 14:09 | -26.51746 | -52.01891 | 4854 ft | 103 kts | 154° |
| 2026-04-12 14:09 | -26.52168 | -52.01339 | 4816 ft | 98 kts | 90° |
| 2026-04-12 14:10 | -26.51954 | -52.00612 | 4785 ft | 100 kts | 59° |
| 2026-04-12 14:10 | -26.51608 | -51.99951 | 4772 ft | 99 kts | 52° |
| 2026-04-12 14:10 | -26.51178 | -51.99362 | 4701 ft | 96 kts | 41° |
| 2026-04-12 14:10 | -26.50675 | -51.98851 | 4505 ft | 101 kts | 37° |
| 2026-04-12 14:11 | -26.50104 | -51.98425 | 4308 ft | 95 kts | 30° |
| 2026-04-12 14:11 | -26.49496 | -51.98139 | 4156 ft | 94 kts | 12° |
| 2026-04-12 14:11 | -26.48878 | -51.97991 | 4012 ft | 90 kts | 15° |
| 2026-04-12 14:11 | -26.48290 | -51.97819 | 3839 ft | 83 kts | 11° |
| 2026-04-12 14:12 | -26.47757 | -51.97674 | 3676 ft | 75 kts | 17° |
| 2026-04-12 14:12 | -26.47317 | -51.97551 | 3620 ft | 51 kts | 17° |
| 2026-04-12 14:12 | -26.47069 | -51.97480 | 3614 ft | 22 kts | 21° |
| 2026-04-12 14:12 | -26.47055 | -51.97484 | 3614 ft | 6 kts | 186° |
| 2026-04-12 14:13 | -26.47108 | -51.97492 | 3615 ft | 11 kts | 189° |
| 2026-04-12 14:13 | -26.47202 | -51.97516 | 3616 ft | 16 kts | 196° |
| 2026-04-12 14:13 | -26.47299 | -51.97544 | 3619 ft | 13 kts | 193° |
| 2026-04-12 14:13 | -26.47346 | -51.97569 | 3620 ft | 5 kts | 241° |
| 2026-04-12 14:14 | -26.47343 | -51.97614 | 3618 ft | 9 kts | 279° |
| 2026-04-12 14:14 | -26.47355 | -51.97659 | 3615 ft | 0 kts | 158° |
| 2026-04-12 14:14 | -26.47357 | -51.97657 | 3615 ft | 0 kts | 106° |